createdAt,value
2018-11-07T00:08:58.142Z,93.37
2018-11-07T00:19:02.992Z,99.43
2018-11-07T00:29:07.686Z,99.47
2018-11-07T00:39:12.318Z,87.00
2018-11-07T00:49:17.110Z,88.80
2018-11-07T00:59:21.874Z,98.03
2018-11-07T01:09:26.532Z,85.40
2018-11-07T01:19:31.402Z,85.43
2018-11-07T01:29:36.106Z,89.93
2018-11-07T01:39:41.052Z,86.20
2018-11-07T01:49:45.771Z,79.47
2018-11-07T01:59:50.443Z,83.60
2018-11-07T02:09:55.290Z,84.00
2018-11-07T02:20:00.038Z,79.57
2018-11-07T02:30:05.195Z,81.13
2018-11-07T02:40:10.106Z,80.53
2018-11-07T02:50:14.774Z,76.43
2018-11-07T03:00:19.346Z,73.90
2018-11-07T03:10:23.952Z,77.57
2018-11-07T03:20:28.677Z,79.50
2018-11-07T03:30:33.251Z,74.77
2018-11-07T03:40:37.945Z,70.70
2018-11-07T03:50:42.802Z,77.53
2018-11-07T04:00:50.791Z,78.23
2018-11-07T04:10:55.432Z,81.70
2018-11-07T04:21:00.078Z,73.53
2018-11-07T04:31:05.398Z,71.03
2018-11-07T04:41:09.898Z,89.07
2018-11-07T04:51:14.860Z,84.70
2018-11-07T05:01:19.511Z,70.63
2018-11-07T05:11:24.285Z,76.40
2018-11-07T05:21:28.910Z,78.83
2018-11-07T05:31:33.666Z,72.67
2018-11-07T05:41:38.487Z,76.47
2018-11-07T05:51:43.118Z,79.77
2018-11-07T06:01:48.171Z,76.13
2018-11-07T06:11:52.633Z,72.30
2018-11-07T06:21:57.122Z,71.50
2018-11-07T06:32:01.753Z,75.77
2018-11-07T06:42:06.357Z,72.47
2018-11-07T06:52:10.833Z,78.07
2018-11-07T07:02:15.201Z,81.10
2018-11-07T07:12:19.998Z,75.83
2018-11-07T07:22:24.400Z,77.90
2018-11-07T07:32:30.656Z,78.37
2018-11-07T07:42:35.046Z,65.33
2018-11-07T07:52:39.792Z,73.43
2018-11-07T08:02:46.296Z,76.20
2018-11-07T08:12:51.130Z,68.13
2018-11-07T08:22:55.498Z,64.33
2018-11-07T08:32:59.788Z,71.93
2018-11-07T08:43:04.090Z,72.57
2018-11-07T08:53:08.397Z,68.20
2018-11-07T09:03:12.682Z,77.37
2018-11-07T09:13:17.081Z,70.03
2018-11-07T09:23:21.529Z,73.07
2018-11-07T09:33:25.802Z,75.67
2018-11-07T09:43:30.223Z,68.87
2018-11-07T09:53:34.671Z,74.80
2018-11-07T10:03:38.966Z,73.13
2018-11-07T10:13:43.278Z,78.90
2018-11-07T10:23:47.751Z,68.97
2018-11-07T10:33:52.112Z,82.00
2018-11-07T10:43:56.436Z,67.73
2018-11-07T10:54:00.827Z,55.90
2018-11-07T11:04:05.386Z,56.47
2018-11-07T11:14:10.242Z,55.17
2018-11-07T11:24:14.630Z,56.33
2018-11-07T11:34:19.311Z,55.53
2018-11-07T11:44:23.610Z,58.83
2018-11-07T11:54:28.474Z,58.57
2018-11-07T12:04:32.830Z,59.87
2018-11-07T12:14:37.218Z,56.50
2018-11-07T12:24:41.654Z,58.90
2018-11-07T12:34:46.075Z,59.60
2018-11-07T12:44:50.802Z,59.53
2018-11-07T12:54:55.199Z,64.67
2018-11-07T13:04:59.651Z,65.80
2018-11-07T13:15:04.866Z,68.83
2018-11-07T13:25:10.580Z,71.57
2018-11-07T13:35:15.654Z,77.73
2018-11-07T13:45:21.255Z,63.30
2018-11-07T13:55:26.202Z,67.63
2018-11-07T14:05:30.899Z,78.90
2018-11-07T14:15:35.351Z,62.40
2018-11-07T14:25:40.985Z,67.67
2018-11-07T14:35:45.411Z,61.93
2018-11-07T14:45:49.806Z,74.70
2018-11-07T14:55:54.302Z,60.73
2018-11-07T15:05:58.840Z,60.90
2018-11-07T15:16:03.190Z,74.13
2018-11-07T15:26:07.631Z,59.33
2018-11-07T15:36:12.140Z,59.77
2018-11-07T15:46:16.781Z,57.10
2018-11-07T15:56:21.591Z,58.27
2018-11-07T16:06:27.216Z,60.53
2018-11-07T16:16:31.702Z,66.47
2018-11-07T16:26:37.630Z,63.17
2018-11-07T16:36:42.298Z,67.07
2018-11-07T16:46:47.094Z,65.23
2018-11-07T16:56:51.850Z,71.50
2018-11-07T17:06:56.654Z,60.53
2018-11-07T17:17:01.431Z,67.20
2018-11-07T17:27:06.222Z,69.80
2018-11-07T17:37:10.793Z,59.03
2018-11-07T17:47:15.497Z,68.13
2018-11-07T17:57:19.982Z,64.83
2018-11-07T18:07:24.313Z,63.77
2018-11-07T18:17:29.101Z,72.27
2018-11-07T18:27:33.881Z,61.87
2018-11-07T18:37:38.326Z,82.90
2018-11-07T18:47:43.986Z,68.20
2018-11-07T18:57:48.595Z,71.00
2018-11-07T19:07:53.272Z,72.77
2018-11-07T19:17:58.182Z,75.17
2018-11-07T19:28:03.151Z,67.63
2018-11-07T19:38:08.351Z,79.87
2018-11-07T19:48:13.386Z,79.37
2018-11-07T19:58:18.187Z,72.37
2018-11-07T20:08:24.579Z,77.30
2018-11-07T20:18:29.194Z,79.83
2018-11-07T20:28:33.819Z,77.47
2018-11-07T20:38:38.692Z,76.60
2018-11-07T20:48:43.817Z,79.80
2018-11-07T20:58:49.004Z,70.63
2018-11-07T21:08:53.555Z,84.70
2018-11-07T21:18:58.023Z,79.63
2018-11-07T21:29:02.370Z,78.80
2018-11-07T21:39:09.625Z,81.90
2018-11-07T21:49:14.103Z,84.53
2018-11-07T21:59:18.975Z,87.23
2018-11-07T22:09:23.846Z,88.27
2018-11-07T22:19:28.710Z,88.87
2018-11-07T22:29:33.058Z,82.33
2018-11-07T22:39:37.668Z,81.50
2018-11-07T22:49:43.167Z,83.30
2018-11-07T22:59:48.040Z,90.30
2018-11-07T23:09:52.704Z,95.47
2018-11-07T23:19:57.151Z,78.60
2018-11-07T23:30:01.750Z,87.90
2018-11-07T23:40:07.643Z,82.20
2018-11-07T23:50:12.147Z,92.93
